Time;durP1;ratioP1;P1;durP2;ratioP2;P2;SDS_P1;SDS_P2;PMS_P1;PMS_P2;Temp;Humidity;BMP_temperature;BMP_pressure;BME280_temperature;BME280_humidity;BME280_pressure;Samples;Min_cycle;Max_cycle;Signal;HPM_P1;HPM_P2
2023/11/16 02:07:18;;;;;;;;;;;7.50;99.90;;;;;;6657288;89;20073;-81
2023/11/16 02:17:39;;;;;;;;;;;7.50;99.90;;;;;;6636830;88;20063;-82
2023/11/16 02:38:21;;;;;;;;;;;7.70;99.90;;;;;;6641218;89;20051;-80
2023/11/16 02:48:58;;;;;;;;;;;7.50;99.90;;;;;;6709778;88;20032;-82
2023/11/16 02:59:28;;;;;;;;;;;7.60;99.90;;;;;;6711464;88;20070;-81
2023/11/16 03:31:12;;;;;;;;;;;;;;;;;;;;;
2023/11/16 04:03:10;;;;;;;;;;;7.90;99.90;;;;;;6679012;89;20058;-80
2023/11/16 04:13:29;;;;;;;;;;;7.80;99.90;;;;;;6678521;89;20131;-80
2023/11/16 04:24:05;;;;;;;;;;;7.70;99.90;;;;;;6678575;89;20090;-81
2023/11/16 04:45:30;;;;;;;;;;;;;;;;;;;;;
2023/11/16 05:27:34;;;;;;;;;;;7.30;99.90;;;;;;6675799;88;20149;-81
2023/11/16 06:09:15;;;;;;;;;;;7.50;99.90;;;;;;6648178;89;20078;-81
2023/11/16 06:29:46;;;;;;;;;;;7.60;99.90;;;;;;3372374;85;20244;-82
2023/11/16 06:39:47;;;;;;;;;;;7.70;99.90;;;;;;6662513;88;20040;-83
2023/11/16 06:49:48;;;;;;;;;;;7.60;99.90;;;;;;6649193;89;20058;-80
2023/11/16 06:59:49;;;;;;;;;;;7.50;99.90;;;;;;6650851;89;20074;-81
2023/11/16 07:09:49;;;;;;;;;;;7.50;99.90;;;;;;6652970;89;20066;-82
2023/11/16 07:19:50;;;;;;;;;;;7.50;99.90;;;;;;6653216;89;20050;-80
2023/11/16 08:40:16;;;;;;;;;;;7.50;99.90;;;;;;6652635;89;20100;-87
2023/11/16 08:50:17;;;;;;;;;;;7.70;99.90;;;;;;6757007;78;20216;-77
2023/11/16 09:00:27;;;;;;;;;;;7.80;99.90;;;;;;6643885;88;20058;-76
2023/11/16 09:10:31;;;;;;;;;;;7.80;99.90;;;;;;6646141;88;20057;-77
2023/11/16 09:20:33;;;;;;;;;;;8.00;99.90;;;;;;6650365;88;20087;-77
2023/11/16 09:30:38;;;;;;;;;;;8.20;99.90;;;;;;6648358;88;20142;-77
2023/11/16 09:40:39;;;;;;;;;;;8.30;99.90;;;;;;6653140;88;20058;-78
2023/11/16 09:50:42;;;;;;;;;;;8.10;99.90;;;;;;6668116;88;20087;-78
2023/11/16 10:00:48;;;;;;;;;;;8.20;99.90;;;;;;6721345;88;20554;-77
2023/11/16 10:10:53;;;;;;;;;;;8.30;99.90;;;;;;6706844;88;20053;-77
2023/11/16 10:20:53;;;;;;;;;;;8.30;99.90;;;;;;6730981;88;20160;-78
2023/11/16 10:30:57;;;;;;;;;;;8.50;99.90;;;;;;6723428;88;20103;-78
2023/11/16 10:40:58;;;;;;;;;;;8.40;99.90;;;;;;6722277;88;20150;-77
2023/11/16 10:51:00;;;;;;;;;;;8.50;99.90;;;;;;6711756;88;20066;-77
2023/11/16 11:01:02;;;;;;;;;;;8.40;99.90;;;;;;6729562;88;20062;-78
2023/11/16 11:11:03;;;;;;;;;;;8.50;99.90;;;;;;6706966;88;20064;-77
2023/11/16 11:21:07;;;;;;;;;;;8.60;99.90;;;;;;6722680;88;20062;-78
2023/11/16 11:31:10;;;;;;;;;;;8.60;99.90;;;;;;6730329;88;20080;-76
2023/11/16 11:41:14;;;;;;;;;;;8.70;99.90;;;;;;6722781;88;20078;-78
2023/11/16 11:51:19;;;;;;;;;;;8.60;99.90;;;;;;6707976;88;20076;-77
2023/11/16 12:01:20;;;;;;;;;;;8.50;99.90;;;;;;6714696;88;20090;-78
2023/11/16 12:11:23;;;;;;;;;;;8.60;99.90;;;;;;6728578;88;20573;-77
2023/11/16 12:21:23;;;;;;;;;;;8.60;99.90;;;;;;6725208;88;20066;-77
2023/11/16 12:31:27;;;;;;;;;;;8.60;99.90;;;;;;6713154;88;20090;-78
2023/11/16 12:41:27;;;;;;;;;;;8.70;99.90;;;;;;6721620;88;20100;-77
2023/11/16 12:51:29;;;;;;;;;;;8.60;99.90;;;;;;6720581;88;20180;-78
2023/11/16 13:01:29;;;;;;;;;;;8.50;99.90;;;;;;6730781;88;20576;-78
2023/11/16 13:11:30;;;;;;;;;;;8.50;99.90;;;;;;6714995;88;20059;-78
2023/11/16 13:21:30;;;;;;;;;;;8.50;99.90;;;;;;6723807;88;20115;-78
2023/11/16 13:31:31;;;;;;;;;;;8.50;99.90;;;;;;6705862;88;20066;-78
2023/11/16 13:41:31;;;;;;;;;;;8.50;99.90;;;;;;6719425;88;20054;-77
2023/11/16 13:51:32;;;;;;;;;;;8.50;99.90;;;;;;6714420;88;20586;-77
2023/11/16 14:01:32;;;;;;;;;;;8.60;99.90;;;;;;6715483;88;20144;-77
2023/11/16 14:11:33;;;;;;;;;;;8.60;99.90;;;;;;6710708;88;20201;-76
2023/11/16 14:21:34;;;;;;;;;;;8.80;99.90;;;;;;6712480;88;20564;-77
2023/11/16 14:31:35;;;;;;;;;;;9.10;99.90;;;;;;6728230;88;20466;-76
2023/11/16 14:41:35;;;;;;;;;;;9.10;99.90;;;;;;6729361;88;20079;-77
2023/11/16 14:51:36;;;;;;;;;;;9.20;99.90;;;;;;6719036;88;20168;-79
2023/11/16 15:01:36;;;;;;;;;;;9.00;99.90;;;;;;6728061;88;20101;-78
2023/11/16 15:11:37;;;;;;;;;;;8.90;99.90;;;;;;6724900;88;20046;-76
2023/11/16 15:21:39;;;;;;;;;;;8.90;99.90;;;;;;6725936;88;20498;-77
2023/11/16 15:31:40;;;;;;;;;;;8.70;99.90;;;;;;6727434;88;20047;-77
2023/11/16 15:41:41;;;;;;;;;;;8.70;99.90;;;;;;6724978;88;20100;-77
2023/11/16 15:51:41;;;;;;;;;;;8.70;99.90;;;;;;6727843;88;20690;-77
2023/11/16 16:01:43;;;;;;;;;;;8.70;99.90;;;;;;6734270;88;20054;-77
2023/11/16 16:11:43;;;;;;;;;;;8.60;99.90;;;;;;6723169;88;20206;-76
2023/11/16 16:21:47;;;;;;;;;;;8.50;99.90;;;;;;6727948;88;20167;-77
2023/11/16 16:31:48;;;;;;;;;;;8.50;99.90;;;;;;6736020;88;20132;-77
2023/11/16 16:41:50;;;;;;;;;;;8.40;99.90;;;;;;6735398;88;20070;-77
2023/11/16 16:51:52;;;;;;;;;;;8.40;99.90;;;;;;6725521;88;20076;-77
2023/11/16 17:01:53;;;;;;;;;;;8.40;99.90;;;;;;6732204;88;20122;-78
2023/11/16 17:11:53;;;;;;;;;;;8.50;99.90;;;;;;6729731;88;20051;-77
2023/11/16 17:21:54;;;;;;;;;;;8.40;99.90;;;;;;6724657;88;20745;-77
2023/11/16 17:31:55;;;;;;;;;;;8.20;99.90;;;;;;6731233;88;20117;-77
2023/11/16 17:41:55;;;;;;;;;;;8.20;99.90;;;;;;6728279;88;20269;-77
2023/11/16 17:51:56;;;;;;;;;;;8.10;99.90;;;;;;6729583;88;20256;-77
2023/11/16 18:01:57;;;;;;;;;;;8.00;99.90;;;;;;6726841;88;20257;-78
2023/11/16 18:11:58;;;;;;;;;;;7.90;99.90;;;;;;6723875;88;20073;-77
2023/11/16 18:21:59;;;;;;;;;;;7.80;99.90;;;;;;6720093;88;20058;-77
2023/11/16 18:32:00;;;;;;;;;;;7.80;99.90;;;;;;6731843;88;20565;-77
2023/11/16 18:42:01;;;;;;;;;;;7.70;99.90;;;;;;6716020;88;20082;-77
2023/11/16 18:52:01;;;;;;;;;;;7.80;99.90;;;;;;6716310;88;20884;-77
2023/11/16 19:02:02;;;;;;;;;;;7.70;99.90;;;;;;6713663;88;20063;-78
2023/11/16 19:12:02;;;;;;;;;;;7.60;99.90;;;;;;6727091;88;20183;-77
2023/11/16 19:22:05;;;;;;;;;;;7.60;99.90;;;;;;6731202;88;20058;-76
2023/11/16 19:32:06;;;;;;;;;;;7.50;99.90;;;;;;6732740;88;20066;-76
2023/11/16 19:42:06;;;;;;;;;;;7.60;99.90;;;;;;6729824;88;20486;-77
2023/11/16 19:52:07;;;;;;;;;;;7.80;99.90;;;;;;6730038;88;20063;-77
2023/11/16 20:02:12;;;;;;;;;;;7.70;99.90;;;;;;6732932;88;20113;-77
2023/11/16 20:12:12;;;;;;;;;;;7.60;99.90;;;;;;6715948;88;20195;-77
2023/11/16 20:22:13;;;;;;;;;;;7.60;99.90;;;;;;6730548;88;20197;-77
2023/11/16 20:32:14;;;;;;;;;;;7.70;99.90;;;;;;6729313;88;20105;-77
2023/11/16 20:42:14;;;;;;;;;;;7.70;99.90;;;;;;6730271;88;20090;-78
2023/11/16 20:52:15;;;;;;;;;;;7.60;99.90;;;;;;6728632;88;20104;-79
2023/11/16 21:02:17;;;;;;;;;;;7.40;99.90;;;;;;6737951;88;20066;-78
2023/11/16 21:12:18;;;;;;;;;;;7.30;99.90;;;;;;6725878;88;20088;-78
2023/11/16 21:22:19;;;;;;;;;;;7.20;99.90;;;;;;6734736;88;20062;-78
2023/11/16 21:32:20;;;;;;;;;;;7.20;99.90;;;;;;6733306;88;20050;-78
2023/11/16 21:42:21;;;;;;;;;;;7.20;99.90;;;;;;6736344;88;20187;-78
2023/11/16 21:52:23;;;;;;;;;;;7.20;99.90;;;;;;6728418;88;20063;-77
2023/11/16 22:02:23;;;;;;;;;;;7.30;99.90;;;;;;6724782;88;20189;-77
2023/11/16 22:12:31;;;;;;;;;;;7.30;99.90;;;;;;6724360;88;20566;-77
2023/11/16 22:22:32;;;;;;;;;;;7.30;99.90;;;;;;6726928;88;20059;-77
2023/11/16 22:32:35;;;;;;;;;;;7.40;99.90;;;;;;6734407;88;20062;-78
2023/11/16 22:42:36;;;;;;;;;;;7.30;99.90;;;;;;6733697;88;20074;-76
2023/11/16 22:52:38;;;;;;;;;;;7.30;99.90;;;;;;6733237;88;20084;-77
2023/11/16 23:02:38;;;;;;;;;;;7.40;99.90;;;;;;6731274;88;20662;-77
2023/11/16 23:12:39;;;;;;;;;;;7.40;99.90;;;;;;6730775;88;20150;-77
2023/11/16 23:22:39;;;;;;;;;;;7.50;99.90;;;;;;6731051;88;20067;-77
2023/11/16 23:32:40;;;;;;;;;;;7.50;99.90;;;;;;6732322;88;20058;-78
2023/11/16 23:42:41;;;;;;;;;;;7.60;99.90;;;;;;6728607;88;20064;-79
2023/11/16 23:52:41;;;;;;;;;;;7.60;99.90;;;;;;6730044;88;20156;-79
